This is the latest recevied weather packets stored in our database for station/object N5XJB. If no packets are shown the sender has not sent any weather packets the latest 1 day(s).
| Time | Temp. | Humidity | Pressure | Rain* | Wind** | Luminosity | Snow |
|---|---|---|---|---|---|---|---|
| 1778017920 | 28.89° C | 73% | 1008 hPa | 0 mm | 1.34 m/s, 66° | 302 W/m² | - |
| 1778017617 | 28.89° C | 74% | 1008.3 hPa | 0 mm | 1.34 m/s, 120° | 242 W/m² | - |
| 1778017314 | 28.89° C | 75% | 1008 hPa | 0 mm | 1.34 m/s, 158° | 264 W/m² | - |
| 1778017012 | 28.89° C | 74% | 1008.3 hPa | 0 mm | 0.45 m/s, 318° | 246 W/m² | - |
| 1778016708 | 29.44° C | 73% | 1008.3 hPa | 0 mm | 0.89 m/s, 186° | 157 W/m² | - |
| 1778016404 | 29.44° C | 73% | 1008.3 hPa | 0 mm | 0.89 m/s, 160° | 273 W/m² | - |
| 1778016102 | 29.44° C | 73% | 1008.3 hPa | 0 mm | 0.89 m/s, 206° | 276 W/m² | - |
| 1778015799 | 30° C | 72% | 1008.3 hPa | 0 mm | 0.89 m/s, 112° | 260 W/m² | - |
| 1778015496 | 29.44° C | 73% | 1008.3 hPa | 0 mm | 0.89 m/s, 174° | 365 W/m² | - |
| 1778015193 | 29.44° C | 73% | 1008.7 hPa | 0 mm | 0.89 m/s, 94° | 354 W/m² | - |
| 1778014889 | 29.44° C | 72% | 1008.7 hPa | 0 mm | 0.89 m/s, 114° | 346 W/m² | - |
| 1778014587 | 29.44° C | 72% | 1008.7 hPa | 0 mm | 1.34 m/s, 129° | 289 W/m² | - |
| 1778014285 | 30° C | 71% | 1008.7 hPa | 0 mm | 0.89 m/s, 262° | 206 W/m² | - |
| 1778013982 | 30° C | 69% | 1008.7 hPa | 0 mm | 0.89 m/s, 64° | 509 W/m² | - |
| 1778013679 | 30° C | 70% | 1008.7 hPa | 0 mm | 0.89 m/s, 54° | 560 W/m² | - |
| 1778013376 | 30° C | 70% | 1008.7 hPa | 0 mm | 0.89 m/s, 114° | 401 W/m² | - |
| 1778013073 | 30° C | 70% | 1008.7 hPa | 0 mm | 0.89 m/s, 307° | 626 W/m² | - |
| 1778012769 | 29.44° C | 73% | 1009 hPa | 0 mm | 0 m/s | 298 W/m² | - |
| 1778012465 | 30° C | 71% | 1009.3 hPa | 0 mm | 0.89 m/s, 272° | 446 W/m² | - |
| 1778012162 | 29.44° C | 72% | 1009 hPa | 0 mm | 0.89 m/s, 99° | 456 W/m² | - |
| 1778011860 | 30° C | 72% | 1009.3 hPa | 0 mm | 0.89 m/s, 66° | 383 W/m² | - |
| 1778011557 | 29.44° C | 72% | 1009.3 hPa | 0 mm | 0.89 m/s, 325° | 384 W/m² | - |
| 1778011254 | 28.89° C | 73% | 1009.3 hPa | 0 mm | 1.34 m/s, 324° | 367 W/m² | - |
| 1778010950 | 28.89° C | 73% | 1009.7 hPa | 0 mm | 1.79 m/s, 101° | 364 W/m² | - |
| 1778010648 | 28.89° C | 74% | 1009.7 hPa | 0 mm | 0.89 m/s, 282° | 426 W/m² | - |
* Rain latest hour (hover to see other rain measurements)
** Current wind speed in m/s (hover to see current wind gust speed)